ePrivacy and GPDR Cookie Consent by Cookie Consent
EmailTwitter


Observations de surface / Canada / CYYZ (71624)

Régions: Québec | Canada | États-Unis | Europe | France | UK | Ailleurs
Station
Affichage
Infos & localisation pour CYYZ (71624) | Aide pour décoder les METARs

Observations prises le 2024-07-22 à 22H00 UTC à TORONTO A, ON (CYYZ)

Etat du ciel: couvert.

Température: 25.0 Celsius

Point de rosée: 17.0 Celsius

Humidité relative: 61%

Indice Humidex 30.

Vents: Sud à 9 km/h ou 5 noeuds.

Pression au niveau moyen de la mer: 101.45 kilopascals.

Calage altimétrique: 101.46 kilopascals ou 29.96 pouces de mercure.

Visibilité horizontale: 15.00 milles terrestres ou 24.00 kilomètres.

Hauteur du plafond: 5486 mètres ( 18000 pieds ).

Observation METAR:

CYYZ 222200Z 18005KT 110V210 15SM FEW050 BKN180 OVC230 25/17 A2996 RMK

CU1AC6CI2 CU TR SLP145 DENSITY ALT 1800FT=